sensor_id;sensor_type;location;lat;lon;timestamp;temperature;humidity
47618;DHT22;33336;36.728;-4.414;2023-08-08T00:01:57;29.60;99.90
47618;DHT22;33336;36.728;-4.414;2023-08-08T00:07:03;29.80;99.90
47618;DHT22;33336;36.728;-4.414;2023-08-08T00:12:07;29.60;99.90
47618;DHT22;33336;36.728;-4.414;2023-08-08T00:17:10;29.50;99.90
47618;DHT22;33336;36.728;-4.414;2023-08-08T00:22:14;29.80;99.90
47618;DHT22;33336;36.728;-4.414;2023-08-08T00:27:18;29.70;99.90
47618;DHT22;33336;36.728;-4.414;2023-08-08T00:32:22;29.70;99.90
47618;DHT22;33336;36.728;-4.414;2023-08-08T00:37:24;29.20;99.90
47618;DHT22;33336;36.728;-4.414;2023-08-08T00:42:29;28.70;99.90
47618;DHT22;33336;36.728;-4.414;2023-08-08T00:47:32;28.10;99.90
47618;DHT22;33336;36.728;-4.414;2023-08-08T00:52:36;28.90;99.90
47618;DHT22;33336;36.728;-4.414;2023-08-08T00:57:41;28.30;99.90
47618;DHT22;33336;36.728;-4.414;2023-08-08T01:02:45;28.90;99.90
47618;DHT22;33336;36.728;-4.414;2023-08-08T01:07:53;29.10;99.90
47618;DHT22;33336;36.728;-4.414;2023-08-08T01:13:00;29.20;99.90
47618;DHT22;33336;36.728;-4.414;2023-08-08T01:18:06;29.00;99.90
47618;DHT22;33336;36.728;-4.414;2023-08-08T01:23:14;29.00;99.90
47618;DHT22;33336;36.728;-4.414;2023-08-08T01:28:23;28.70;99.90
47618;DHT22;33336;36.728;-4.414;2023-08-08T01:33:26;28.40;99.90
47618;DHT22;33336;36.728;-4.414;2023-08-08T01:38:33;28.50;99.90
47618;DHT22;33336;36.728;-4.414;2023-08-08T01:43:38;28.70;99.90
47618;DHT22;33336;36.728;-4.414;2023-08-08T01:48:45;27.90;99.90
47618;DHT22;33336;36.728;-4.414;2023-08-08T01:53:49;27.80;99.90
47618;DHT22;33336;36.728;-4.414;2023-08-08T01:58:53;27.60;99.90
47618;DHT22;33336;36.728;-4.414;2023-08-08T02:03:57;27.60;99.90
47618;DHT22;33336;36.728;-4.414;2023-08-08T02:08:59;27.90;99.90
47618;DHT22;33336;36.728;-4.414;2023-08-08T02:14:04;27.70;99.90
47618;DHT22;33336;36.728;-4.414;2023-08-08T02:19:08;27.70;99.90
47618;DHT22;33336;36.728;-4.414;2023-08-08T02:24:12;27.80;99.90
47618;DHT22;33336;36.728;-4.414;2023-08-08T02:29:16;27.60;99.90
47618;DHT22;33336;36.728;-4.414;2023-08-08T02:34:20;28.00;99.90
47618;DHT22;33336;36.728;-4.414;2023-08-08T02:39:22;27.60;99.90
47618;DHT22;33336;36.728;-4.414;2023-08-08T02:44:28;27.30;99.90
47618;DHT22;33336;36.728;-4.414;2023-08-08T02:49:30;27.50;99.90
47618;DHT22;33336;36.728;-4.414;2023-08-08T02:54:35;27.70;99.90
47618;DHT22;33336;36.728;-4.414;2023-08-08T02:59:39;28.20;99.90
47618;DHT22;33336;36.728;-4.414;2023-08-08T03:04:43;28.40;99.90
47618;DHT22;33336;36.728;-4.414;2023-08-08T03:09:45;28.40;99.90
47618;DHT22;33336;36.728;-4.414;2023-08-08T03:14:50;28.80;99.90
47618;DHT22;33336;36.728;-4.414;2023-08-08T03:19:53;27.90;99.90
47618;DHT22;33336;36.728;-4.414;2023-08-08T03:24:57;27.80;99.90
47618;DHT22;33336;36.728;-4.414;2023-08-08T03:30:01;28.40;99.90
47618;DHT22;33336;36.728;-4.414;2023-08-08T03:35:05;28.10;99.90
47618;DHT22;33336;36.728;-4.414;2023-08-08T03:40:10;28.20;99.90
47618;DHT22;33336;36.728;-4.414;2023-08-08T03:45:15;28.60;99.90
47618;DHT22;33336;36.728;-4.414;2023-08-08T03:50:18;28.40;99.90
47618;DHT22;33336;36.728;-4.414;2023-08-08T03:55:21;27.70;99.90
47618;DHT22;33336;36.728;-4.414;2023-08-08T04:00:26;27.80;99.90
47618;DHT22;33336;36.728;-4.414;2023-08-08T04:05:29;28.40;99.90
47618;DHT22;33336;36.728;-4.414;2023-08-08T04:10:31;28.50;99.90
47618;DHT22;33336;36.728;-4.414;2023-08-08T04:15:36;28.50;99.90
47618;DHT22;33336;36.728;-4.414;2023-08-08T04:20:39;28.60;99.90
47618;DHT22;33336;36.728;-4.414;2023-08-08T04:25:43;28.60;99.90
47618;DHT22;33336;36.728;-4.414;2023-08-08T04:30:47;28.50;99.90
47618;DHT22;33336;36.728;-4.414;2023-08-08T04:35:50;28.70;99.90
47618;DHT22;33336;36.728;-4.414;2023-08-08T04:40:53;28.80;99.90
47618;DHT22;33336;36.728;-4.414;2023-08-08T04:45:57;28.80;99.90
47618;DHT22;33336;36.728;-4.414;2023-08-08T04:51:00;28.80;99.90
47618;DHT22;33336;36.728;-4.414;2023-08-08T04:56:04;28.70;99.90
47618;DHT22;33336;36.728;-4.414;2023-08-08T05:01:08;28.60;99.90
47618;DHT22;33336;36.728;-4.414;2023-08-08T05:06:16;28.60;99.90
47618;DHT22;33336;36.728;-4.414;2023-08-08T05:11:18;28.50;99.90
47618;DHT22;33336;36.728;-4.414;2023-08-08T05:16:23;28.50;99.90
47618;DHT22;33336;36.728;-4.414;2023-08-08T05:21:26;28.40;99.90
47618;DHT22;33336;36.728;-4.414;2023-08-08T05:26:29;28.40;99.90
47618;DHT22;33336;36.728;-4.414;2023-08-08T05:31:34;28.40;99.90
47618;DHT22;33336;36.728;-4.414;2023-08-08T05:36:37;28.60;99.90
47618;DHT22;33336;36.728;-4.414;2023-08-08T05:41:40;27.90;99.90
47618;DHT22;33336;36.728;-4.414;2023-08-08T05:46:45;28.10;99.90
47618;DHT22;33336;36.728;-4.414;2023-08-08T05:51:48;27.70;99.90
47618;DHT22;33336;36.728;-4.414;2023-08-08T05:56:51;27.40;99.90
47618;DHT22;33336;36.728;-4.414;2023-08-08T06:01:55;27.60;99.90
47618;DHT22;33336;36.728;-4.414;2023-08-08T06:06:58;27.50;99.90
47618;DHT22;33336;36.728;-4.414;2023-08-08T06:12:01;27.70;99.90
47618;DHT22;33336;36.728;-4.414;2023-08-08T06:17:06;28.10;99.90
47618;DHT22;33336;36.728;-4.414;2023-08-08T06:22:09;27.80;99.90
47618;DHT22;33336;36.728;-4.414;2023-08-08T06:27:13;28.50;99.90
47618;DHT22;33336;36.728;-4.414;2023-08-08T06:32:18;28.60;99.90
47618;DHT22;33336;36.728;-4.414;2023-08-08T06:37:21;28.80;99.90
47618;DHT22;33336;36.728;-4.414;2023-08-08T06:42:24;28.70;99.90
47618;DHT22;33336;36.728;-4.414;2023-08-08T06:47:29;28.90;99.90
47618;DHT22;33336;36.728;-4.414;2023-08-08T06:52:32;29.20;99.90
47618;DHT22;33336;36.728;-4.414;2023-08-08T06:57:35;29.20;99.90
47618;DHT22;33336;36.728;-4.414;2023-08-08T07:02:40;29.60;99.90
47618;DHT22;33336;36.728;-4.414;2023-08-08T07:07:42;29.50;99.90
47618;DHT22;33336;36.728;-4.414;2023-08-08T07:12:46;28.50;99.90
47618;DHT22;33336;36.728;-4.414;2023-08-08T07:17:52;28.40;99.90
47618;DHT22;33336;36.728;-4.414;2023-08-08T07:22:55;28.30;99.90
47618;DHT22;33336;36.728;-4.414;2023-08-08T07:27:58;28.90;99.90
47618;DHT22;33336;36.728;-4.414;2023-08-08T07:33:03;29.60;99.90
47618;DHT22;33336;36.728;-4.414;2023-08-08T07:38:06;29.00;99.90
47618;DHT22;33336;36.728;-4.414;2023-08-08T07:43:08;29.20;99.90
47618;DHT22;33336;36.728;-4.414;2023-08-08T07:48:13;28.80;99.90
47618;DHT22;33336;36.728;-4.414;2023-08-08T07:53:16;28.40;99.90
47618;DHT22;33336;36.728;-4.414;2023-08-08T07:58:19;28.10;99.90
47618;DHT22;33336;36.728;-4.414;2023-08-08T08:03:26;28.20;99.90
47618;DHT22;33336;36.728;-4.414;2023-08-08T08:08:29;28.10;99.90
47618;DHT22;33336;36.728;-4.414;2023-08-08T08:13:32;28.40;99.90
47618;DHT22;33336;36.728;-4.414;2023-08-08T08:18:36;28.90;99.90
47618;DHT22;33336;36.728;-4.414;2023-08-08T08:23:39;28.80;99.90
47618;DHT22;33336;36.728;-4.414;2023-08-08T08:28:42;29.40;99.90
47618;DHT22;33336;36.728;-4.414;2023-08-08T08:33:47;28.80;99.90
47618;DHT22;33336;36.728;-4.414;2023-08-08T08:38:50;29.60;99.90
47618;DHT22;33336;36.728;-4.414;2023-08-08T08:43:54;29.20;99.90
47618;DHT22;33336;36.728;-4.414;2023-08-08T08:48:58;28.80;99.90
47618;DHT22;33336;36.728;-4.414;2023-08-08T08:54:03;28.40;99.90
47618;DHT22;33336;36.728;-4.414;2023-08-08T08:59:07;28.80;99.90
47618;DHT22;33336;36.728;-4.414;2023-08-08T09:04:12;28.80;99.90
47618;DHT22;33336;36.728;-4.414;2023-08-08T09:09:18;28.70;99.90
47618;DHT22;33336;36.728;-4.414;2023-08-08T09:14:25;29.10;99.90
47618;DHT22;33336;36.728;-4.414;2023-08-08T09:19:29;29.80;99.90
47618;DHT22;33336;36.728;-4.414;2023-08-08T09:24:32;29.90;99.90
47618;DHT22;33336;36.728;-4.414;2023-08-08T09:29:36;29.80;99.90
47618;DHT22;33336;36.728;-4.414;2023-08-08T09:34:42;29.70;99.90
47618;DHT22;33336;36.728;-4.414;2023-08-08T09:39:45;30.50;99.90
47618;DHT22;33336;36.728;-4.414;2023-08-08T09:44:48;30.30;99.90
47618;DHT22;33336;36.728;-4.414;2023-08-08T09:49:54;30.30;99.90
47618;DHT22;33336;36.728;-4.414;2023-08-08T09:54:59;31.30;99.90
47618;DHT22;33336;36.728;-4.414;2023-08-08T10:00:02;30.30;99.90
47618;DHT22;33336;36.728;-4.414;2023-08-08T10:05:10;29.30;99.90
47618;DHT22;33336;36.728;-4.414;2023-08-08T10:10:16;28.60;99.90
47618;DHT22;33336;36.728;-4.414;2023-08-08T10:15:25;28.50;99.90
47618;DHT22;33336;36.728;-4.414;2023-08-08T10:20:31;29.10;99.90
47618;DHT22;33336;36.728;-4.414;2023-08-08T10:25:35;29.00;99.90
47618;DHT22;33336;36.728;-4.414;2023-08-08T10:30:44;28.60;99.90
47618;DHT22;33336;36.728;-4.414;2023-08-08T10:35:57;28.80;99.90
47618;DHT22;33336;36.728;-4.414;2023-08-08T10:41:02;28.90;99.90
47618;DHT22;33336;36.728;-4.414;2023-08-08T10:46:06;28.80;99.90
47618;DHT22;33336;36.728;-4.414;2023-08-08T10:51:14;28.60;99.90
47618;DHT22;33336;36.728;-4.414;2023-08-08T10:56:19;29.20;99.90
47618;DHT22;33336;36.728;-4.414;2023-08-08T11:01:25;29.10;99.90
47618;DHT22;33336;36.728;-4.414;2023-08-08T11:06:30;29.30;99.90
47618;DHT22;33336;36.728;-4.414;2023-08-08T11:11:37;29.60;99.90
47618;DHT22;33336;36.728;-4.414;2023-08-08T11:16:40;30.20;99.90
47618;DHT22;33336;36.728;-4.414;2023-08-08T11:21:46;30.20;99.90
47618;DHT22;33336;36.728;-4.414;2023-08-08T11:26:49;29.90;99.90
47618;DHT22;33336;36.728;-4.414;2023-08-08T11:31:53;30.10;99.90
47618;DHT22;33336;36.728;-4.414;2023-08-08T11:36:59;30.10;99.90
47618;DHT22;33336;36.728;-4.414;2023-08-08T11:42:02;30.20;99.90
47618;DHT22;33336;36.728;-4.414;2023-08-08T11:47:07;30.20;99.90
47618;DHT22;33336;36.728;-4.414;2023-08-08T11:52:12;31.00;99.90
47618;DHT22;33336;36.728;-4.414;2023-08-08T11:57:15;31.50;99.90
47618;DHT22;33336;36.728;-4.414;2023-08-08T12:02:18;31.60;99.90
47618;DHT22;33336;36.728;-4.414;2023-08-08T12:07:22;30.00;99.90
47618;DHT22;33336;36.728;-4.414;2023-08-08T12:12:26;30.30;99.90
47618;DHT22;33336;36.728;-4.414;2023-08-08T12:17:30;30.20;99.90
47618;DHT22;33336;36.728;-4.414;2023-08-08T12:22:34;29.60;99.90
47618;DHT22;33336;36.728;-4.414;2023-08-08T12:27:38;30.10;99.90
47618;DHT22;33336;36.728;-4.414;2023-08-08T12:32:42;29.90;99.90
47618;DHT22;33336;36.728;-4.414;2023-08-08T12:37:47;30.30;99.90
47618;DHT22;33336;36.728;-4.414;2023-08-08T12:42:50;30.30;99.90
47618;DHT22;33336;36.728;-4.414;2023-08-08T12:47:53;31.10;99.90
47618;DHT22;33336;36.728;-4.414;2023-08-08T12:52:58;30.40;99.90
47618;DHT22;33336;36.728;-4.414;2023-08-08T12:58:02;31.50;99.90
47618;DHT22;33336;36.728;-4.414;2023-08-08T13:03:05;31.50;99.90
47618;DHT22;33336;36.728;-4.414;2023-08-08T13:08:11;32.70;99.90
47618;DHT22;33336;36.728;-4.414;2023-08-08T13:13:14;32.60;99.90
47618;DHT22;33336;36.728;-4.414;2023-08-08T13:18:17;32.50;99.90
47618;DHT22;33336;36.728;-4.414;2023-08-08T13:23:21;33.30;99.90
47618;DHT22;33336;36.728;-4.414;2023-08-08T13:28:25;33.20;99.90
47618;DHT22;33336;36.728;-4.414;2023-08-08T13:33:28;32.60;99.90
47618;DHT22;33336;36.728;-4.414;2023-08-08T13:38:33;33.30;99.90
47618;DHT22;33336;36.728;-4.414;2023-08-08T13:43:36;32.80;99.90
47618;DHT22;33336;36.728;-4.414;2023-08-08T13:48:39;31.70;99.90
47618;DHT22;33336;36.728;-4.414;2023-08-08T13:53:43;31.80;99.90
47618;DHT22;33336;36.728;-4.414;2023-08-08T13:58:48;32.00;99.90
47618;DHT22;33336;36.728;-4.414;2023-08-08T14:03:51;31.70;99.90
47618;DHT22;33336;36.728;-4.414;2023-08-08T14:08:57;31.90;99.90
47618;DHT22;33336;36.728;-4.414;2023-08-08T14:14:00;30.90;99.90
47618;DHT22;33336;36.728;-4.414;2023-08-08T14:19:03;30.70;99.90
47618;DHT22;33336;36.728;-4.414;2023-08-08T14:24:08;31.50;99.90
47618;DHT22;33336;36.728;-4.414;2023-08-08T14:29:11;30.70;99.90
47618;DHT22;33336;36.728;-4.414;2023-08-08T14:34:15;31.30;99.90
47618;DHT22;33336;36.728;-4.414;2023-08-08T14:39:20;31.40;99.90
47618;DHT22;33336;36.728;-4.414;2023-08-08T14:44:24;32.60;99.90
47618;DHT22;33336;36.728;-4.414;2023-08-08T14:49:26;32.90;99.90
47618;DHT22;33336;36.728;-4.414;2023-08-08T14:54:31;31.80;99.90
47618;DHT22;33336;36.728;-4.414;2023-08-08T14:59:34;33.00;99.90
47618;DHT22;33336;36.728;-4.414;2023-08-08T15:04:36;32.50;99.90
47618;DHT22;33336;36.728;-4.414;2023-08-08T15:09:41;33.70;99.90
47618;DHT22;33336;36.728;-4.414;2023-08-08T15:14:44;32.80;99.90
47618;DHT22;33336;36.728;-4.414;2023-08-08T15:19:47;32.30;99.90
47618;DHT22;33336;36.728;-4.414;2023-08-08T15:24:52;32.90;99.70
47618;DHT22;33336;36.728;-4.414;2023-08-08T15:29:55;34.50;98.60
47618;DHT22;33336;36.728;-4.414;2023-08-08T15:34:58;35.90;97.60
47618;DHT22;33336;36.728;-4.414;2023-08-08T15:40:03;35.10;95.90
47618;DHT22;33336;36.728;-4.414;2023-08-08T15:45:08;35.50;97.20
47618;DHT22;33336;36.728;-4.414;2023-08-08T15:50:11;35.60;96.50
47618;DHT22;33336;36.728;-4.414;2023-08-08T15:55:17;33.10;99.00
47618;DHT22;33336;36.728;-4.414;2023-08-08T16:00:19;33.20;99.10
47618;DHT22;33336;36.728;-4.414;2023-08-08T16:05:23;34.80;97.30
47618;DHT22;33336;36.728;-4.414;2023-08-08T16:10:27;35.90;97.30
47618;DHT22;33336;36.728;-4.414;2023-08-08T16:15:31;35.00;97.30
47618;DHT22;33336;36.728;-4.414;2023-08-08T16:20:34;36.50;96.60
47618;DHT22;33336;36.728;-4.414;2023-08-08T16:25:39;35.70;96.20
47618;DHT22;33336;36.728;-4.414;2023-08-08T16:30:41;36.20;96.30
47618;DHT22;33336;36.728;-4.414;2023-08-08T16:35:44;36.30;95.20
47618;DHT22;33336;36.728;-4.414;2023-08-08T16:40:48;37.40;94.60
47618;DHT22;33336;36.728;-4.414;2023-08-08T16:45:52;37.80;93.80
47618;DHT22;33336;36.728;-4.414;2023-08-08T16:50:55;38.60;93.40
47618;DHT22;33336;36.728;-4.414;2023-08-08T16:56:00;37.60;93.60
47618;DHT22;33336;36.728;-4.414;2023-08-08T17:01:08;36.40;94.20
47618;DHT22;33336;36.728;-4.414;2023-08-08T17:06:11;36.80;93.90
47618;DHT22;33336;36.728;-4.414;2023-08-08T17:11:16;35.60;94.80
47618;DHT22;33336;36.728;-4.414;2023-08-08T17:16:19;37.10;93.60
47618;DHT22;33336;36.728;-4.414;2023-08-08T17:21:22;36.00;94.10
47618;DHT22;33336;36.728;-4.414;2023-08-08T17:26:27;37.40;94.10
47618;DHT22;33336;36.728;-4.414;2023-08-08T17:31:30;37.70;92.80
47618;DHT22;33336;36.728;-4.414;2023-08-08T17:36:34;38.10;92.80
47618;DHT22;33336;36.728;-4.414;2023-08-08T17:41:39;37.10;92.50
47618;DHT22;33336;36.728;-4.414;2023-08-08T17:46:42;37.90;92.90
47618;DHT22;33336;36.728;-4.414;2023-08-08T17:51:45;38.40;91.90
47618;DHT22;33336;36.728;-4.414;2023-08-08T17:56:50;37.00;92.50
47618;DHT22;33336;36.728;-4.414;2023-08-08T18:01:54;37.80;92.30
47618;DHT22;33336;36.728;-4.414;2023-08-08T18:06:58;39.00;91.60
47618;DHT22;33336;36.728;-4.414;2023-08-08T18:12:03;38.20;91.30
47618;DHT22;33336;36.728;-4.414;2023-08-08T18:17:08;38.20;91.70
47618;DHT22;33336;36.728;-4.414;2023-08-08T18:22:12;36.40;92.70
47618;DHT22;33336;36.728;-4.414;2023-08-08T18:27:17;34.90;93.60
47618;DHT22;33336;36.728;-4.414;2023-08-08T18:32:21;34.50;94.40
47618;DHT22;33336;36.728;-4.414;2023-08-08T18:37:25;33.20;96.30
47618;DHT22;33336;36.728;-4.414;2023-08-08T18:42:30;32.90;97.10
47618;DHT22;33336;36.728;-4.414;2023-08-08T18:47:33;32.30;98.00
47618;DHT22;33336;36.728;-4.414;2023-08-08T18:52:36;31.80;99.30
47618;DHT22;33336;36.728;-4.414;2023-08-08T18:57:41;30.80;99.90
47618;DHT22;33336;36.728;-4.414;2023-08-08T19:02:43;30.20;99.90
47618;DHT22;33336;36.728;-4.414;2023-08-08T19:07:47;30.70;99.90
47618;DHT22;33336;36.728;-4.414;2023-08-08T19:12:51;30.20;99.90
47618;DHT22;33336;36.728;-4.414;2023-08-08T19:17:55;30.20;99.90
47618;DHT22;33336;36.728;-4.414;2023-08-08T19:22:58;30.10;99.90
47618;DHT22;33336;36.728;-4.414;2023-08-08T19:28:03;29.90;99.90
47618;DHT22;33336;36.728;-4.414;2023-08-08T19:33:07;30.80;99.90
47618;DHT22;33336;36.728;-4.414;2023-08-08T19:38:11;30.70;99.90
47618;DHT22;33336;36.728;-4.414;2023-08-08T19:43:15;30.80;99.90
47618;DHT22;33336;36.728;-4.414;2023-08-08T19:48:19;30.10;99.90
47618;DHT22;33336;36.728;-4.414;2023-08-08T19:53:22;29.40;99.90
47618;DHT22;33336;36.728;-4.414;2023-08-08T19:58:27;29.30;99.90
47618;DHT22;33336;36.728;-4.414;2023-08-08T20:03:29;29.30;99.90
47618;DHT22;33336;36.728;-4.414;2023-08-08T20:08:33;29.00;99.90
47618;DHT22;33336;36.728;-4.414;2023-08-08T20:13:37;29.30;99.90
47618;DHT22;33336;36.728;-4.414;2023-08-08T20:18:41;29.20;99.90
47618;DHT22;33336;36.728;-4.414;2023-08-08T20:23:46;29.00;99.90
47618;DHT22;33336;36.728;-4.414;2023-08-08T20:28:52;29.10;99.90
47618;DHT22;33336;36.728;-4.414;2023-08-08T20:33:55;28.80;99.90
47618;DHT22;33336;36.728;-4.414;2023-08-08T20:38:59;29.60;99.90
47618;DHT22;33336;36.728;-4.414;2023-08-08T20:44:04;29.20;99.90
47618;DHT22;33336;36.728;-4.414;2023-08-08T20:49:08;28.80;99.90
47618;DHT22;33336;36.728;-4.414;2023-08-08T20:54:11;29.00;99.90
47618;DHT22;33336;36.728;-4.414;2023-08-08T20:59:16;28.90;99.90
47618;DHT22;33336;36.728;-4.414;2023-08-08T21:04:18;28.90;99.90
47618;DHT22;33336;36.728;-4.414;2023-08-08T21:09:21;29.30;99.90
47618;DHT22;33336;36.728;-4.414;2023-08-08T21:14:25;28.90;99.90
47618;DHT22;33336;36.728;-4.414;2023-08-08T21:19:28;29.30;99.90
47618;DHT22;33336;36.728;-4.414;2023-08-08T21:24:31;29.90;99.90
47618;DHT22;33336;36.728;-4.414;2023-08-08T21:29:36;30.00;99.90
47618;DHT22;33336;36.728;-4.414;2023-08-08T21:34:38;29.90;99.90
47618;DHT22;33336;36.728;-4.414;2023-08-08T21:39:42;30.20;99.90
47618;DHT22;33336;36.728;-4.414;2023-08-08T21:44:46;30.30;99.90
47618;DHT22;33336;36.728;-4.414;2023-08-08T21:49:50;30.20;99.90
47618;DHT22;33336;36.728;-4.414;2023-08-08T21:54:53;30.20;99.90
47618;DHT22;33336;36.728;-4.414;2023-08-08T21:59:58;29.90;99.90
47618;DHT22;33336;36.728;-4.414;2023-08-08T22:05:00;30.00;99.90
47618;DHT22;33336;36.728;-4.414;2023-08-08T22:10:04;30.10;99.90
47618;DHT22;33336;36.728;-4.414;2023-08-08T22:15:10;29.80;99.90
47618;DHT22;33336;36.728;-4.414;2023-08-08T22:20:13;29.20;99.90
47618;DHT22;33336;36.728;-4.414;2023-08-08T22:25:16;29.40;99.90
47618;DHT22;33336;36.728;-4.414;2023-08-08T22:30:22;29.60;99.90
47618;DHT22;33336;36.728;-4.414;2023-08-08T22:35:24;29.60;99.90
47618;DHT22;33336;36.728;-4.414;2023-08-08T22:40:28;29.50;99.90
47618;DHT22;33336;36.728;-4.414;2023-08-08T22:45:32;29.70;99.90
47618;DHT22;33336;36.728;-4.414;2023-08-08T22:50:36;29.90;99.90
47618;DHT22;33336;36.728;-4.414;2023-08-08T22:55:42;29.40;99.90
47618;DHT22;33336;36.728;-4.414;2023-08-08T23:00:46;29.20;99.90
47618;DHT22;33336;36.728;-4.414;2023-08-08T23:05:49;29.20;99.90
47618;DHT22;33336;36.728;-4.414;2023-08-08T23:10:52;29.50;99.90
47618;DHT22;33336;36.728;-4.414;2023-08-08T23:15:57;29.60;99.90
47618;DHT22;33336;36.728;-4.414;2023-08-08T23:20:59;29.80;99.90
47618;DHT22;33336;36.728;-4.414;2023-08-08T23:26:03;29.30;99.90
47618;DHT22;33336;36.728;-4.414;2023-08-08T23:31:08;29.70;99.90
47618;DHT22;33336;36.728;-4.414;2023-08-08T23:36:11;29.60;99.90
47618;DHT22;33336;36.728;-4.414;2023-08-08T23:41:15;29.10;99.90
47618;DHT22;33336;36.728;-4.414;2023-08-08T23:46:20;29.40;99.90
47618;DHT22;33336;36.728;-4.414;2023-08-08T23:51:23;28.30;99.90
47618;DHT22;33336;36.728;-4.414;2023-08-08T23:56:27;28.40;99.90
